RORY(METAR)
10/16 18:00
METAR RORY 160900Z AUTO 09010KT 040V110 9999 SCT015 26/23 Q1014 RMK
A2996=
戻る
トップページへ戻る
IMOC Co,.Ltd.